WESTPORT MEDIA Westport In The Media

Enter your "Place, State", US Zip Code or ICAO:  

Palma De Mallorca / Son San Juan, Spain

 Lat: 39.55N, Lon: 2.73E
ICAO Used: LEPA
Current Conditions
Updated: 12:00 PM GMT1 FRI OCT 31 2014
Sun & Moon Information
Mostly Clear
Mostly Clear
Temp: 24°C
Humidity: 50%
Wind Speed: ENE 6 MPH
Barometer: 1024 mb
Dewpoint: 13°C
Heat Index: 25°C
Wind Chill: 24°C
Civil Twilight: 6:46 AM GMT1 Moon Phase:
Waxing Gibbous Moon
Sunrise: 7:14 AM GMT1
Sunset: 5:49 PM GMT1
Civil Twilight: 6:17 PM GMT1
Forecast for Palma De Mallorca / Son San Juan, Spain:
(Forecast based on TAF for )
0100 PM GMT1 FRI OCT 31 2014
  
AFTERNOON EVENING OVERNIGHT
Fair Fair Fair
ZoneCast:
Dated: 0100 PM GMT1 FRI OCT 31 2014
Afternoon...Becoming fair with winds from the southwest at 9 mph.

Evening...Fair with winds from the southwest at 9 mph.

Overnight...Fair with winds from the southwest at 9 mph.

Original Encoded TAF:
Dated: 0100 PM GMT1 FRI OCT 31 2014
TAF AMD LEPA 311003Z 3110/0106 05007KT 9999 FEW025 TX25/3112Z TN13/0106Z 
     BECMG 3112/3115 23008KT